createdAt,value
2023-03-22T00:00:06.507Z,4.03
2023-03-22T00:02:33.604Z,5.53
2023-03-22T00:05:01.237Z,3.72
2023-03-22T00:07:28.264Z,4.07
2023-03-22T00:09:55.344Z,4.72
2023-03-22T00:12:22.556Z,5.72
2023-03-22T00:14:49.635Z,3.67
2023-03-22T00:17:16.778Z,5.38
2023-03-22T00:19:45.018Z,6.25
2023-03-22T00:22:14.472Z,5.00
2023-03-22T00:24:41.700Z,4.43
2023-03-22T00:27:08.943Z,3.50
2023-03-22T00:29:36.130Z,3.38
2023-03-22T00:32:04.390Z,4.13
2023-03-22T00:34:32.969Z,3.78
2023-03-22T00:37:00.330Z,4.60
2023-03-22T00:39:27.504Z,5.13
2023-03-22T00:41:54.669Z,5.03
2023-03-22T00:44:21.786Z,4.68
2023-03-22T00:46:48.993Z,5.82
2023-03-22T00:49:16.041Z,5.97
2023-03-22T00:51:43.147Z,5.85
2023-03-22T00:54:10.268Z,6.15
2023-03-22T00:56:38.248Z,5.07
2023-03-22T00:59:05.598Z,6.20
2023-03-22T01:01:32.918Z,4.65
2023-03-22T01:04:00.336Z,7.07
2023-03-22T01:06:27.368Z,7.05
2023-03-22T01:08:55.204Z,6.32
2023-03-22T01:11:22.360Z,6.28
2023-03-22T01:13:49.668Z,7.85
2023-03-22T01:16:16.878Z,5.57
2023-03-22T01:18:44.169Z,5.30
2023-03-22T01:21:11.421Z,7.20
2023-03-22T01:23:38.773Z,8.10
2023-03-22T01:26:06.349Z,5.22
2023-03-22T01:28:33.522Z,6.90
2023-03-22T01:31:04.182Z,4.97
2023-03-22T01:33:31.501Z,5.95
2023-03-22T01:35:58.695Z,5.35
2023-03-22T01:38:25.933Z,4.57
2023-03-22T01:40:53.157Z,5.30
2023-03-22T01:43:20.340Z,5.82
2023-03-22T01:45:51.821Z,6.10
2023-03-22T01:48:25.612Z,3.70
2023-03-22T01:51:12.472Z,4.90
2023-03-22T01:53:47.695Z,5.50
2023-03-22T01:56:15.356Z,4.85
2023-03-22T01:58:42.835Z,4.82
2023-03-22T02:01:11.210Z,4.93
2023-03-22T02:03:47.865Z,6.07
2023-03-22T02:06:15.407Z,5.47
2023-03-22T02:08:42.647Z,4.68
2023-03-22T02:11:24.774Z,5.05
2023-03-22T02:14:18.429Z,5.50
2023-03-22T02:17:13.638Z,4.60
2023-03-22T02:20:21.201Z,4.78
2023-03-22T02:22:50.036Z,5.70
2023-03-22T02:25:38.341Z,5.05
2023-03-22T02:28:26.318Z,4.68
2023-03-22T02:31:10.935Z,5.30
2023-03-22T02:33:53.110Z,5.95
2023-03-22T02:37:05.461Z,4.82
2023-03-22T02:39:51.232Z,4.38
2023-03-22T02:42:41.031Z,5.50
2023-03-22T02:45:14.436Z,4.65
2023-03-22T02:47:49.879Z,5.20
2023-03-22T02:50:40.479Z,7.43
2023-03-22T02:53:21.554Z,6.75
2023-03-22T02:56:26.701Z,9.85
2023-03-22T02:58:57.459Z,6.53
2023-03-22T03:01:39.665Z,5.93
2023-03-22T03:04:11.587Z,7.20
2023-03-22T03:06:46.225Z,6.65
2023-03-22T03:09:19.348Z,7.45
2023-03-22T03:11:52.842Z,6.53
2023-03-22T03:14:26.062Z,6.35
2023-03-22T03:17:22.068Z,4.70
2023-03-22T03:20:16.819Z,5.65
2023-03-22T03:22:49.930Z,5.75
2023-03-22T03:25:26.282Z,8.25
2023-03-22T03:28:30.331Z,5.03
2023-03-22T03:31:06.588Z,5.90
2023-03-22T03:33:40.191Z,5.72
2023-03-22T03:36:11.342Z,4.85
2023-03-22T03:38:42.108Z,5.82
2023-03-22T03:41:14.327Z,5.03
2023-03-22T03:43:43.370Z,5.05
2023-03-22T03:46:10.802Z,5.35
2023-03-22T03:48:39.787Z,5.45
2023-03-22T03:51:07.224Z,6.03
2023-03-22T03:53:34.506Z,5.55
2023-03-22T03:56:01.653Z,6.70
2023-03-22T03:58:30.870Z,5.57
2023-03-22T04:00:58.178Z,6.10
2023-03-22T04:03:25.849Z,5.82
2023-03-22T04:05:53.314Z,6.88
2023-03-22T04:08:20.534Z,7.80
2023-03-22T04:10:51.993Z,4.63
2023-03-22T04:13:24.648Z,5.60
2023-03-22T04:15:57.458Z,5.65
2023-03-22T04:18:24.485Z,5.90
2023-03-22T04:20:53.675Z,6.60
2023-03-22T04:23:23.265Z,8.23
2023-03-22T04:25:51.901Z,5.00
2023-03-22T04:28:21.804Z,6.40
2023-03-22T04:30:52.028Z,6.63
2023-03-22T04:33:23.073Z,5.10
2023-03-22T04:35:50.670Z,5.40
2023-03-22T04:38:18.548Z,5.20
2023-03-22T04:40:46.881Z,6.10
2023-03-22T04:43:15.948Z,6.38
2023-03-22T04:45:44.042Z,6.35
2023-03-22T04:48:11.343Z,6.30
2023-03-22T04:50:42.979Z,5.50
2023-03-22T04:53:12.411Z,6.97
2023-03-22T04:55:39.643Z,6.03
2023-03-22T04:58:07.110Z,6.70
2023-03-22T05:00:34.336Z,5.95
2023-03-22T05:03:01.853Z,6.05
2023-03-22T05:05:28.990Z,5.38
2023-03-22T05:07:56.430Z,4.88
2023-03-22T05:10:23.639Z,4.85
2023-03-22T05:12:51.022Z,4.20
2023-03-22T05:15:18.026Z,8.82
2023-03-22T05:17:45.196Z,5.20
2023-03-22T05:20:12.350Z,5.20
2023-03-22T05:22:41.116Z,4.68
2023-03-22T05:25:10.420Z,4.13
2023-03-22T05:27:38.994Z,6.65
2023-03-22T05:30:07.420Z,4.05
2023-03-22T05:32:37.537Z,5.05
2023-03-22T05:35:05.512Z,5.25
2023-03-22T05:37:32.698Z,8.77
2023-03-22T05:39:59.850Z,5.35
2023-03-22T05:42:27.311Z,5.47
2023-03-22T05:44:54.725Z,5.05
2023-03-22T05:47:22.205Z,5.22
2023-03-22T05:49:49.498Z,4.30
2023-03-22T05:52:16.591Z,4.45
2023-03-22T05:54:44.107Z,6.68
2023-03-22T05:57:11.480Z,5.38
2023-03-22T05:59:38.675Z,4.72
2023-03-22T06:02:06.466Z,5.50
2023-03-22T06:04:34.085Z,5.97
2023-03-22T06:07:01.423Z,6.43
2023-03-22T06:09:28.716Z,6.40
2023-03-22T06:11:55.868Z,4.70
2023-03-22T06:14:23.184Z,4.55
2023-03-22T06:16:52.104Z,5.30
2023-03-22T06:19:19.126Z,5.50
2023-03-22T06:21:46.353Z,6.68
2023-03-22T06:24:13.351Z,3.58
2023-03-22T06:26:40.595Z,4.50
2023-03-22T06:29:07.949Z,4.65
2023-03-22T06:31:35.392Z,4.38
2023-03-22T06:34:02.735Z,5.57
2023-03-22T06:36:30.344Z,6.18
2023-03-22T06:38:59.133Z,5.78
2023-03-22T06:41:26.546Z,5.50
2023-03-22T06:43:53.928Z,5.90
2023-03-22T06:46:21.222Z,7.47
2023-03-22T06:48:48.436Z,5.90
2023-03-22T06:51:15.965Z,6.45
2023-03-22T06:53:43.077Z,5.00
2023-03-22T06:56:10.187Z,5.55
2023-03-22T06:58:38.847Z,4.43
2023-03-22T07:01:08.308Z,5.93
2023-03-22T07:03:35.704Z,5.28
2023-03-22T07:06:06.975Z,6.22
2023-03-22T07:08:35.978Z,4.63
2023-03-22T07:11:03.718Z,7.90
2023-03-22T07:13:30.719Z,9.05
2023-03-22T07:16:02.577Z,5.63
2023-03-22T07:18:30.533Z,5.45
2023-03-22T07:20:57.650Z,7.82
2023-03-22T07:23:24.794Z,7.00
2023-03-22T07:25:52.289Z,6.25
2023-03-22T07:28:19.430Z,6.30
2023-03-22T07:30:46.563Z,4.85
2023-03-22T07:33:13.928Z,4.50
2023-03-22T07:35:43.721Z,4.20
2023-03-22T07:38:12.385Z,8.93
2023-03-22T07:40:40.047Z,5.53
2023-03-22T07:43:07.414Z,8.27
2023-03-22T07:45:34.814Z,4.82
2023-03-22T07:48:02.165Z,5.15
2023-03-22T07:50:29.427Z,3.75
2023-03-22T07:52:56.459Z,5.15
2023-03-22T07:55:23.532Z,3.88
2023-03-22T07:57:51.636Z,4.03
2023-03-22T08:00:19.054Z,4.40
2023-03-22T08:02:46.377Z,3.63
2023-03-22T08:05:13.704Z,5.05
2023-03-22T08:07:41.377Z,4.32
2023-03-22T08:10:08.890Z,4.65
2023-03-22T08:12:36.043Z,5.53
2023-03-22T08:15:03.376Z,3.78
2023-03-22T08:17:30.729Z,4.63
2023-03-22T08:19:58.149Z,4.43
2023-03-22T08:22:25.970Z,5.88
2023-03-22T08:24:53.440Z,4.80
2023-03-22T08:27:21.004Z,7.65
2023-03-22T08:29:48.901Z,6.35
2023-03-22T08:32:17.043Z,4.55
2023-03-22T08:34:45.053Z,3.17
2023-03-22T08:37:13.127Z,4.90
2023-03-22T08:39:40.363Z,5.10
2023-03-22T08:42:07.467Z,5.65
2023-03-22T08:44:34.471Z,7.63
2023-03-22T08:47:03.129Z,4.55
2023-03-22T08:49:31.510Z,3.72
2023-03-22T08:51:58.605Z,6.47
2023-03-22T08:54:28.211Z,5.63
2023-03-22T08:56:55.300Z,4.32
2023-03-22T08:59:22.380Z,3.97
2023-03-22T09:01:49.699Z,5.22
2023-03-22T09:04:16.800Z,3.75
2023-03-22T09:06:45.416Z,2.60
2023-03-22T09:09:13.055Z,3.75
2023-03-22T09:11:41.407Z,3.10
2023-03-22T09:14:11.750Z,2.78
2023-03-22T09:16:39.051Z,2.58
2023-03-22T09:19:06.756Z,2.63
2023-03-22T09:21:33.755Z,2.58
2023-03-22T09:24:00.903Z,3.58
2023-03-22T09:26:27.854Z,2.42
2023-03-22T09:28:54.949Z,1.55
2023-03-22T09:31:22.219Z,1.75
2023-03-22T09:33:49.696Z,1.88
2023-03-22T09:36:17.069Z,1.55
2023-03-22T09:38:43.926Z,2.40
2023-03-22T09:41:16.265Z,1.75
2023-03-22T09:43:50.083Z,3.03
2023-03-22T09:46:33.839Z,1.50
2023-03-22T09:49:02.776Z,4.18
2023-03-22T09:52:02.384Z,2.05
2023-03-22T09:54:38.691Z,1.50
2023-03-22T09:57:21.254Z,2.08
2023-03-22T10:00:00.854Z,2.03
2023-03-22T10:02:42.581Z,1.35
2023-03-22T10:05:18.058Z,1.67
2023-03-22T10:08:11.756Z,1.65
2023-03-22T10:10:43.276Z,1.42
2023-03-22T10:13:36.162Z,1.80
2023-03-22T10:16:12.459Z,1.25
2023-03-22T10:18:47.086Z,2.45
2023-03-22T10:21:17.228Z,2.42
2023-03-22T10:24:03.912Z,2.17
2023-03-22T10:26:37.028Z,2.28
2023-03-22T10:29:32.455Z,1.83
2023-03-22T10:32:13.730Z,3.17
2023-03-22T10:34:40.999Z,1.10
2023-03-22T10:37:13.682Z,1.17
2023-03-22T10:39:46.475Z,1.70
2023-03-22T10:42:16.975Z,1.48
2023-03-22T10:44:57.210Z,1.90
2023-03-22T10:47:58.073Z,0.75
2023-03-22T10:50:45.280Z,1.33
2023-03-22T10:53:34.946Z,1.48
2023-03-22T10:56:01.939Z,3.22
2023-03-22T10:58:31.284Z,2.28
2023-03-22T11:01:03.589Z,2.80
2023-03-22T11:03:36.979Z,1.83
2023-03-22T11:06:10.679Z,0.80
2023-03-22T11:08:48.815Z,1.70
2023-03-22T11:11:22.694Z,1.77
2023-03-22T11:14:14.097Z,1.27
2023-03-22T11:17:08.294Z,1.42
2023-03-22T11:19:53.913Z,1.80
2023-03-22T11:22:41.216Z,2.00
2023-03-22T11:25:28.188Z,0.98
2023-03-22T11:28:05.946Z,5.20
2023-03-22T11:30:34.592Z,1.30
2023-03-22T11:33:22.030Z,1.67
2023-03-22T11:36:01.859Z,1.75
2023-03-22T11:38:37.881Z,2.55
2023-03-22T11:41:20.312Z,1.10
2023-03-22T11:43:56.939Z,1.80
2023-03-22T11:46:24.468Z,2.70
2023-03-22T11:48:58.333Z,2.78
2023-03-22T11:51:32.564Z,1.15
2023-03-22T11:54:09.362Z,1.02
2023-03-22T11:56:42.384Z,1.27
2023-03-22T11:59:13.669Z,1.80
2023-03-22T12:01:43.092Z,1.02
2023-03-22T12:04:16.773Z,1.20
2023-03-22T12:06:43.837Z,1.88
2023-03-22T12:09:25.987Z,2.30
2023-03-22T12:11:57.342Z,3.88
2023-03-22T12:14:46.871Z,1.15
2023-03-22T12:17:26.121Z,1.33
2023-03-22T12:20:08.594Z,0.85
2023-03-22T12:22:51.095Z,2.47
2023-03-22T12:25:22.797Z,1.30
2023-03-22T12:27:59.472Z,1.23
2023-03-22T12:30:32.147Z,1.42
2023-03-22T12:33:03.752Z,1.05
2023-03-22T12:35:36.894Z,0.95
2023-03-22T12:38:20.906Z,0.82
2023-03-22T12:40:49.713Z,1.27
2023-03-22T12:43:41.205Z,0.82
2023-03-22T12:46:16.808Z,2.17
2023-03-22T12:48:48.492Z,1.00
2023-03-22T12:51:15.932Z,2.33
2023-03-22T12:53:47.231Z,1.35
2023-03-22T12:56:26.675Z,1.38
2023-03-22T12:59:02.578Z,0.52
2023-03-22T13:01:44.113Z,1.63
2023-03-22T13:04:26.054Z,1.63
2023-03-22T13:06:53.564Z,1.20
2023-03-22T13:09:40.546Z,1.25
2023-03-22T13:12:19.119Z,1.40
2023-03-22T13:14:57.976Z,0.70
2023-03-22T13:17:25.483Z,0.75
2023-03-22T13:20:23.544Z,2.33
2023-03-22T13:22:50.516Z,0.98
2023-03-22T13:25:18.887Z,0.88
2023-03-22T13:27:46.020Z,1.23
2023-03-22T13:30:41.702Z,3.50
2023-03-22T13:33:11.799Z,0.98
2023-03-22T13:35:45.886Z,1.08
2023-03-22T13:38:19.791Z,2.13
2023-03-22T13:41:25.236Z,1.95
2023-03-22T13:43:55.343Z,2.67
2023-03-22T13:46:22.612Z,1.50
2023-03-22T13:48:52.833Z,1.98
2023-03-22T13:51:23.068Z,1.48
2023-03-22T13:54:07.036Z,2.60
2023-03-22T13:56:43.152Z,1.77
2023-03-22T13:59:30.333Z,1.40
2023-03-22T14:02:18.719Z,0.57
2023-03-22T14:04:50.153Z,2.92
2023-03-22T14:07:37.360Z,2.08
2023-03-22T14:10:32.594Z,7.15
2023-03-22T14:13:17.289Z,0.80
2023-03-22T14:15:52.181Z,0.70
2023-03-22T14:18:34.296Z,1.40
2023-03-22T14:21:11.626Z,0.85
